Time;durP1;ratioP1;P1;durP2;ratioP2;P2;SDS_P1;SDS_P2;PMS_P1;PMS_P2;Temp;Humidity;BMP_temperature;BMP_pressure;BME280_temperature;BME280_humidity;BME280_pressure;Samples;Min_cycle;Max_cycle;Signal;HPM_P1;HPM_P2
2023/03/25 00:01:17;;;;;;;2.20;1.30;;;11.50;99.90;;;;;;5009460;28;20510;-72
2023/03/25 00:04:04;;;;;;;4.30;1.60;;;11.40;99.90;;;;;;5006868;28;20969;-71
2023/03/25 00:06:49;;;;;;;3.07;1.50;;;11.40;99.90;;;;;;5018083;28;20820;-72
2023/03/25 00:09:35;;;;;;;4.30;1.53;;;11.40;99.90;;;;;;5012832;28;20469;-72
2023/03/25 00:12:21;;;;;;;7.57;3.13;;;11.40;99.90;;;;;;5008842;28;20939;-71
2023/03/25 00:15:10;;;;;;;5.50;1.37;;;11.30;99.90;;;;;;5014673;28;20427;-71
2023/03/25 00:17:56;;;;;;;3.50;1.67;;;11.30;99.90;;;;;;5001384;28;20472;-72
2023/03/25 00:20:44;;;;;;;5.27;1.80;;;11.30;99.90;;;;;;5004665;28;20579;-71
2023/03/25 00:23:31;;;;;;;3.20;1.33;;;11.20;99.90;;;;;;5010235;28;20426;-71
2023/03/25 00:26:17;;;;;;;6.07;1.40;;;11.10;99.90;;;;;;5020036;28;20440;-71
2023/03/25 00:29:03;;;;;;;3.30;1.00;;;11.10;99.90;;;;;;5017693;28;20476;-71
2023/03/25 00:31:50;;;;;;;5.50;2.00;;;11.00;99.90;;;;;;5006450;28;20837;-72
2023/03/25 00:34:40;;;;;;;5.03;1.40;;;11.00;99.90;;;;;;5014854;28;20793;-72
2023/03/25 00:37:26;;;;;;;3.57;1.57;;;11.00;99.90;;;;;;5009955;28;20932;-72
2023/03/25 00:40:12;;;;;;;3.20;1.30;;;11.10;99.90;;;;;;5004761;28;20459;-72
2023/03/25 00:42:57;;;;;;;3.13;1.43;;;11.00;99.90;;;;;;5000169;28;20512;-72
2023/03/25 00:45:43;;;;;;;5.10;1.67;;;11.00;99.90;;;;;;5006873;28;20424;-71
2023/03/25 00:48:30;;;;;;;3.70;1.57;;;10.90;99.90;;;;;;5009477;28;21080;-72
2023/03/25 00:51:18;;;;;;;3.77;1.20;;;10.90;99.90;;;;;;5005935;28;21053;-72
2023/03/25 00:54:03;;;;;;;5.00;1.40;;;10.90;99.90;;;;;;5019640;28;21001;-71
2023/03/25 00:56:51;;;;;;;5.00;1.67;;;10.90;99.90;;;;;;5000373;28;20432;-71
2023/03/25 00:59:36;;;;;;;5.80;1.47;;;10.90;99.90;;;;;;5008670;28;20428;-71
2023/03/25 01:02:23;;;;;;;4.53;1.87;;;10.80;99.90;;;;;;5007617;28;20587;-72
2023/03/25 01:05:10;;;;;;;10.73;1.73;;;10.90;99.90;;;;;;5019126;28;20441;-71
2023/03/25 01:07:56;;;;;;;6.00;1.10;;;10.80;99.90;;;;;;5006978;28;20942;-72
2023/03/25 01:10:42;;;;;;;3.93;1.33;;;10.80;99.90;;;;;;5005388;28;20478;-72
2023/03/25 01:13:28;;;;;;;5.30;1.30;;;10.90;99.90;;;;;;5016483;28;20527;-72
2023/03/25 01:16:14;;;;;;;4.03;1.20;;;10.90;99.90;;;;;;5005326;28;21157;-72
2023/03/25 01:19:00;;;;;;;3.50;1.20;;;10.90;99.90;;;;;;5008235;28;20428;-72
2023/03/25 01:21:46;;;;;;;4.33;1.10;;;10.90;99.90;;;;;;5004281;28;20829;-72
2023/03/25 01:24:33;;;;;;;5.77;1.93;;;10.80;99.90;;;;;;5015129;28;20510;-72
2023/03/25 01:27:18;;;;;;;7.47;1.30;;;10.90;99.90;;;;;;5024301;28;20428;-72
2023/03/25 01:30:05;;;;;;;4.33;1.10;;;11.00;99.90;;;;;;5008575;28;20481;-72
2023/03/25 01:32:50;;;;;;;2.00;0.80;;;11.00;99.90;;;;;;5014441;28;20421;-72
2023/03/25 01:35:36;;;;;;;3.03;1.10;;;10.90;99.90;;;;;;5024055;28;20427;-72
2023/03/25 01:38:23;;;;;;;4.63;1.20;;;10.90;99.90;;;;;;5013398;28;20427;-72
2023/03/25 01:41:09;;;;;;;10.17;1.70;;;10.90;99.90;;;;;;5003300;28;20440;-72
2023/03/25 01:44:09;;;;;;;4.37;1.20;;;10.90;99.90;;;;;;4999479;28;20455;-72
2023/03/25 01:46:56;;;;;;;3.53;1.13;;;10.90;99.90;;;;;;5006384;28;21007;-72
2023/03/25 01:49:44;;;;;;;8.30;1.53;;;10.90;99.90;;;;;;5003745;28;20622;-72
2023/03/25 01:52:30;;;;;;;8.17;1.27;;;10.80;99.90;;;;;;5005812;28;20974;-72
2023/03/25 01:55:19;;;;;;;6.10;1.60;;;10.90;99.90;;;;;;5008780;28;20978;-72
2023/03/25 01:58:09;;;;;;;10.23;1.60;;;10.80;99.90;;;;;;5010753;28;20462;-72
2023/03/25 02:00:56;;;;;;;3.23;1.20;;;10.70;99.90;;;;;;5006180;28;20443;-72
2023/03/25 02:03:45;;;;;;;4.97;1.33;;;10.50;99.90;;;;;;5006019;28;20472;-72
2023/03/25 02:06:38;;;;;;;3.50;1.20;;;10.50;99.90;;;;;;5007815;28;20977;-72
2023/03/25 02:09:26;;;;;;;5.00;1.30;;;10.30;99.90;;;;;;5005437;28;20489;-72
2023/03/25 02:12:13;;;;;;;7.00;1.30;;;10.20;99.90;;;;;;5004864;28;20479;-72
2023/03/25 02:15:01;;;;;;;3.47;1.07;;;10.10;99.90;;;;;;5003606;28;20893;-71
2023/03/25 02:18:02;;;;;;;2.57;0.83;;;10.00;99.90;;;;;;5009251;28;20467;-72
2023/03/25 02:21:17;;;;;;;3.33;0.90;;;9.90;99.90;;;;;;5002545;28;20453;-72
2023/03/25 02:24:35;;;;;;;2.77;1.20;;;9.80;99.90;;;;;;5002832;28;20964;-72
2023/03/25 02:27:40;;;;;;;3.30;1.00;;;9.60;99.90;;;;;;4992251;28;20456;-72
2023/03/25 02:30:55;;;;;;;1.90;1.00;;;9.60;99.90;;;;;;5005169;28;20468;-72
2023/03/25 02:34:08;;;;;;;3.10;1.00;;;9.70;99.90;;;;;;5003999;28;20563;-72
2023/03/25 02:37:15;;;;;;;4.30;1.23;;;9.80;99.90;;;;;;5003982;28;20502;-72
2023/03/25 02:40:06;;;;;;;2.47;1.10;;;9.70;99.90;;;;;;5005531;28;20977;-71
2023/03/25 02:42:55;;;;;;;2.33;1.00;;;9.70;99.90;;;;;;5004798;28;20606;-72
2023/03/25 02:45:44;;;;;;;2.57;1.20;;;9.70;99.90;;;;;;5006710;28;20448;-71
2023/03/25 02:48:34;;;;;;;3.03;1.40;;;9.70;99.90;;;;;;5000990;28;20814;-72
2023/03/25 02:51:25;;;;;;;5.47;1.33;;;9.60;99.90;;;;;;5003057;28;20523;-72
2023/03/25 02:54:14;;;;;;;1.53;0.67;;;9.60;99.90;;;;;;5009358;28;20453;-71
2023/03/25 02:57:02;;;;;;;1.57;0.70;;;9.70;99.90;;;;;;4995042;28;20448;-72
2023/03/25 02:59:52;;;;;;;6.17;0.80;;;9.70;99.90;;;;;;5001652;28;20903;-72
2023/03/25 03:02:39;;;;;;;1.60;0.80;;;9.50;99.90;;;;;;5007354;28;20952;-72
2023/03/25 03:05:26;;;;;;;2.57;1.00;;;9.60;99.90;;;;;;5005801;28;20583;-71
2023/03/25 03:08:30;;;;;;;2.73;0.80;;;9.50;99.90;;;;;;5002715;28;20506;-72
2023/03/25 03:11:20;;;;;;;1.67;0.80;;;9.50;99.90;;;;;;5006143;28;20480;-72
2023/03/25 03:14:30;;;;;;;8.57;1.30;;;9.40;99.90;;;;;;4999188;28;20446;-71
2023/03/25 03:17:23;;;;;;;2.07;1.03;;;9.50;99.90;;;;;;5007222;28;20452;-71
2023/03/25 03:20:18;;;;;;;3.00;0.90;;;9.40;99.90;;;;;;5004956;28;20463;-71
2023/03/25 03:23:09;;;;;;;7.77;1.23;;;9.50;99.90;;;;;;5005007;28;20485;-71
2023/03/25 03:26:00;;;;;;;4.40;1.07;;;9.50;99.90;;;;;;5009508;28;20439;-72
2023/03/25 03:28:51;;;;;;;9.73;1.70;;;9.50;99.90;;;;;;5002420;28;20456;-72
2023/03/25 03:31:43;;;;;;;1.93;0.90;;;9.50;99.90;;;;;;5005020;28;20572;-72
2023/03/25 03:34:35;;;;;;;5.17;1.10;;;9.50;99.90;;;;;;5005433;28;20452;-72
2023/03/25 03:37:26;;;;;;;3.40;0.90;;;9.50;99.90;;;;;;5008857;28;20447;-72
2023/03/25 03:40:17;;;;;;;6.13;1.10;;;9.50;99.90;;;;;;5008188;28;20965;-71
2023/03/25 03:43:07;;;;;;;5.50;1.60;;;9.50;99.90;;;;;;5005875;28;20479;-72
2023/03/25 03:45:58;;;;;;;3.20;1.00;;;9.50;99.90;;;;;;5004421;28;20507;-71
2023/03/25 03:48:48;;;;;;;1.90;0.90;;;9.40;99.90;;;;;;5001626;28;20445;-72
2023/03/25 03:51:37;;;;;;;1.73;0.90;;;9.40;99.90;;;;;;4996846;28;20593;-72
2023/03/25 03:54:26;;;;;;;2.00;0.90;;;9.40;99.90;;;;;;5007329;28;20920;-72
2023/03/25 03:57:16;;;;;;;4.33;1.13;;;9.50;99.90;;;;;;5003215;28;20612;-72
2023/03/25 04:00:08;;;;;;;3.70;1.03;;;9.50;99.90;;;;;;5006150;28;20471;-72
2023/03/25 04:02:58;;;;;;;2.90;1.00;;;9.50;99.90;;;;;;5005880;28;20820;-72
2023/03/25 04:05:53;;;;;;;5.17;1.23;;;9.40;99.90;;;;;;5009750;28;20509;-72
2023/03/25 04:08:45;;;;;;;4.53;1.40;;;9.40;99.90;;;;;;5000556;28;20543;-72
2023/03/25 04:11:37;;;;;;;4.63;1.10;;;9.50;99.90;;;;;;5001874;28;20487;-72
2023/03/25 04:14:23;;;;;;;3.10;1.00;;;9.50;99.90;;;;;;5002975;28;20960;-72
2023/03/25 04:17:08;;;;;;;3.73;1.23;;;9.50;99.90;;;;;;5006372;28;20454;-72
2023/03/25 04:19:54;;;;;;;3.30;0.87;;;9.40;99.90;;;;;;5004782;28;20444;-72
2023/03/25 04:22:44;;;;;;;2.23;1.10;;;9.40;99.90;;;;;;5006684;28;20467;-72
2023/03/25 04:25:31;;;;;;;3.93;1.53;;;9.40;99.90;;;;;;5006054;28;20450;-71
2023/03/25 04:28:17;;;;;;;1.83;1.03;;;9.30;99.90;;;;;;5000271;28;20452;-72
2023/03/25 04:31:06;;;;;;;3.53;1.00;;;9.30;99.90;;;;;;5008629;28;20484;-72
2023/03/25 04:33:51;;;;;;;3.00;1.13;;;9.40;99.90;;;;;;5007173;28;20451;-72
2023/03/25 04:36:37;;;;;;;10.13;2.33;;;9.50;99.90;;;;;;5005218;28;20452;-72
2023/03/25 04:39:24;;;;;;;2.30;0.83;;;9.50;99.90;;;;;;5000680;28;20523;-71
2023/03/25 04:42:12;;;;;;;6.23;1.40;;;9.60;99.90;;;;;;5006371;28;20472;-73
2023/03/25 04:44:57;;;;;;;2.20;1.07;;;9.60;99.90;;;;;;5004059;28;20451;-72
2023/03/25 04:47:45;;;;;;;5.63;1.20;;;9.60;99.90;;;;;;5002390;28;20833;-72
2023/03/25 04:50:32;;;;;;;4.43;0.97;;;9.60;99.90;;;;;;5004521;28;20486;-72
2023/03/25 04:53:18;;;;;;;4.07;1.17;;;9.60;99.90;;;;;;5004429;28;20471;-71
2023/03/25 04:56:05;;;;;;;4.03;1.10;;;9.60;99.90;;;;;;5000780;28;20449;-72
2023/03/25 04:58:52;;;;;;;3.80;1.53;;;9.60;99.90;;;;;;5002915;28;20457;-72
2023/03/25 05:01:40;;;;;;;2.93;0.90;;;9.60;99.90;;;;;;5003372;28;20444;-72
2023/03/25 05:04:26;;;;;;;2.33;1.10;;;9.60;99.90;;;;;;5008234;28;20956;-72
2023/03/25 05:07:12;;;;;;;5.90;1.20;;;9.60;99.90;;;;;;5005649;28;21013;-72
2023/03/25 05:09:57;;;;;;;3.07;1.30;;;9.60;99.90;;;;;;5010707;28;21008;-71
2023/03/25 05:12:45;;;;;;;4.43;1.10;;;9.50;99.90;;;;;;5011797;28;20495;-71
2023/03/25 05:15:34;;;;;;;4.60;1.23;;;9.50;99.90;;;;;;5008120;28;20451;-72
2023/03/25 05:18:20;;;;;;;4.63;1.00;;;9.50;99.90;;;;;;5001993;28;20449;-71
2023/03/25 05:21:07;;;;;;;6.67;1.50;;;9.50;99.90;;;;;;5003342;28;20466;-71
2023/03/25 05:23:53;;;;;;;6.30;1.50;;;9.50;99.90;;;;;;5003628;28;20463;-71
2023/03/25 05:26:39;;;;;;;3.10;1.20;;;9.40;99.90;;;;;;5006686;28;20535;-72
2023/03/25 05:29:27;;;;;;;3.77;1.20;;;9.30;99.90;;;;;;5007089;28;20449;-71
2023/03/25 05:32:16;;;;;;;4.10;1.17;;;9.40;99.90;;;;;;5004786;28;20505;-72
2023/03/25 05:35:03;;;;;;;6.70;1.13;;;9.40;99.90;;;;;;5002128;28;20518;-71
2023/03/25 05:37:50;;;;;;;3.37;1.17;;;9.40;99.90;;;;;;5003720;28;20452;-71
2023/03/25 05:40:36;;;;;;;4.10;1.20;;;9.50;99.90;;;;;;5008283;28;20820;-71
2023/03/25 05:43:22;;;;;;;6.43;1.00;;;9.40;99.90;;;;;;5001548;28;20477;-71
2023/03/25 05:46:09;;;;;;;4.20;1.33;;;9.40;99.90;;;;;;5002486;28;20471;-71
2023/03/25 05:48:56;;;;;;;6.53;1.47;;;9.40;99.90;;;;;;5001115;28;20479;-72
2023/03/25 05:51:43;;;;;;;3.00;1.50;;;9.30;99.90;;;;;;5006801;28;20989;-72
2023/03/25 05:54:29;;;;;;;2.83;1.03;;;9.30;99.90;;;;;;5010271;28;20450;-72
2023/03/25 05:57:15;;;;;;;4.83;1.27;;;9.40;99.90;;;;;;5002731;28;20453;-72
2023/03/25 06:00:03;;;;;;;4.93;1.20;;;9.50;99.90;;;;;;5009404;28;20452;-71
2023/03/25 06:02:50;;;;;;;7.07;1.13;;;9.50;99.90;;;;;;5004950;28;20472;-71
2023/03/25 06:05:39;;;;;;;4.23;1.50;;;9.50;99.90;;;;;;5006366;28;20456;-72
2023/03/25 06:08:25;;;;;;;8.07;1.60;;;9.50;99.90;;;;;;5003940;28;20583;-72
2023/03/25 06:11:12;;;;;;;6.27;1.63;;;9.50;99.90;;;;;;5007782;28;21021;-71
2023/03/25 06:13:58;;;;;;;5.80;1.60;;;9.50;99.90;;;;;;5032838;22;20499;-74
2023/03/25 06:16:45;;;;;;;11.50;1.50;;;9.40;99.90;;;;;;5021140;28;20474;-74
2023/03/25 06:19:37;;;;;;;4.70;1.70;;;9.40;99.90;;;;;;5018622;28;20516;-74
2023/03/25 06:22:23;;;;;;;4.03;1.60;;;9.30;99.90;;;;;;5026050;28;20472;-74
2023/03/25 06:25:10;;;;;;;8.53;2.13;;;9.30;99.90;;;;;;5024786;28;20509;-74
2023/03/25 06:28:00;;;;;;;9.47;1.70;;;9.40;99.90;;;;;;5024915;28;20613;-74
2023/03/25 06:30:46;;;;;;;6.70;2.20;;;9.40;99.90;;;;;;5028120;28;20478;-74
2023/03/25 06:33:32;;;;;;;7.17;2.33;;;9.50;99.90;;;;;;5029347;28;20495;-74
2023/03/25 06:36:20;;;;;;;6.53;1.90;;;9.60;99.90;;;;;;5016259;28;20801;-74
2023/03/25 06:39:05;;;;;;;6.50;1.93;;;9.70;99.90;;;;;;5026788;28;20970;-74
2023/03/25 06:41:51;;;;;;;5.40;2.07;;;9.70;99.90;;;;;;5021023;28;20602;-74
2023/03/25 06:44:36;;;;;;;6.40;1.87;;;9.70;99.90;;;;;;5025139;28;20459;-74
2023/03/25 06:47:22;;;;;;;6.50;1.50;;;9.80;99.90;;;;;;5023185;28;20451;-74
2023/03/25 06:50:09;;;;;;;6.37;2.10;;;9.80;99.90;;;;;;5023364;28;20450;-74
2023/03/25 06:52:56;;;;;;;8.73;2.00;;;9.80;99.90;;;;;;5023791;28;20462;-73
2023/03/25 06:55:43;;;;;;;13.93;2.23;;;9.70;99.90;;;;;;5028538;28;20427;-74
2023/03/25 06:58:33;;;;;;;6.40;1.67;;;9.80;99.90;;;;;;5022627;28;20447;-73
2023/03/25 07:01:19;;;;;;;3.57;1.57;;;9.90;99.90;;;;;;5025744;28;20921;-73
2023/03/25 07:04:05;;;;;;;3.50;2.23;;;9.90;99.90;;;;;;5026542;28;21105;-74
2023/03/25 07:06:52;;;;;;;3.30;1.57;;;9.90;99.90;;;;;;5023678;28;21016;-73
2023/03/25 07:09:39;;;;;;;14.20;1.97;;;9.90;99.90;;;;;;5025662;28;20466;-74
2023/03/25 07:12:25;;;;;;;7.53;2.40;;;9.80;99.90;;;;;;5023920;28;21102;-74
2023/03/25 07:15:11;;;;;;;5.57;1.83;;;9.90;99.90;;;;;;5027321;28;20435;-74
2023/03/25 07:17:56;;;;;;;6.57;3.40;;;10.10;99.90;;;;;;5016536;28;20447;-74
2023/03/25 07:20:42;;;;;;;6.37;2.53;;;10.10;99.90;;;;;;5023389;28;20450;-74
2023/03/25 07:23:28;;;;;;;10.87;2.70;;;10.30;99.90;;;;;;5027609;28;20517;-74
2023/03/25 07:26:15;;;;;;;8.37;2.10;;;10.40;99.90;;;;;;5020695;28;20457;-74
2023/03/25 07:29:02;;;;;;;8.57;1.93;;;10.60;99.90;;;;;;5022221;28;20556;-73
2023/03/25 07:31:48;;;;;;;9.90;2.37;;;10.50;99.90;;;;;;5020949;28;20471;-74
2023/03/25 07:34:33;;;;;;;7.90;1.40;;;10.50;99.90;;;;;;5025881;28;20965;-73
2023/03/25 07:37:19;;;;;;;8.00;1.90;;;10.70;99.90;;;;;;5023696;28;20452;-74
2023/03/25 07:40:06;;;;;;;4.47;1.83;;;10.70;99.90;;;;;;5022435;28;20443;-74
2023/03/25 07:42:53;;;;;;;7.37;2.33;;;10.70;99.90;;;;;;5027223;28;20463;-74
2023/03/25 07:45:39;;;;;;;13.30;2.90;;;10.60;99.90;;;;;;5019902;28;20473;-74
2023/03/25 07:48:25;;;;;;;15.60;2.27;;;10.70;99.90;;;;;;5021783;28;20444;-74
2023/03/25 07:51:10;;;;;;;5.53;1.83;;;10.80;99.90;;;;;;5021659;28;20503;-74
2023/03/25 07:53:56;;;;;;;8.40;2.37;;;10.90;99.90;;;;;;5025388;28;20475;-74
2023/03/25 07:56:41;;;;;;;4.63;1.50;;;11.00;99.90;;;;;;5019192;28;20438;-74
2023/03/25 07:59:29;;;;;;;11.47;2.07;;;11.00;99.90;;;;;;5025957;28;20446;-74
2023/03/25 08:02:15;;;;;;;7.73;2.47;;;11.10;99.90;;;;;;5020877;28;20475;-73
2023/03/25 08:05:01;;;;;;;8.70;1.90;;;11.00;99.90;;;;;;5022769;28;20447;-74
2023/03/25 08:07:47;;;;;;;10.20;2.00;;;11.00;99.90;;;;;;5025227;28;20482;-74
2023/03/25 08:10:33;;;;;;;8.90;1.43;;;11.10;99.90;;;;;;5029210;28;20434;-74
2023/03/25 08:13:20;;;;;;;7.63;1.90;;;11.20;99.90;;;;;;5030742;28;20478;-74
2023/03/25 08:16:11;;;;;;;13.67;2.67;;;11.20;99.90;;;;;;5018143;28;20819;-74
2023/03/25 08:18:57;;;;;;;9.00;2.20;;;11.30;99.90;;;;;;5024705;28;20963;-74
2023/03/25 08:21:42;;;;;;;11.80;2.43;;;11.40;99.90;;;;;;5017606;28;20590;-74
2023/03/25 08:24:28;;;;;;;6.80;3.03;;;11.30;99.90;;;;;;5024155;28;20455;-74
2023/03/25 08:27:14;;;;;;;3.83;1.60;;;11.30;99.90;;;;;;5024776;28;20444;-74
2023/03/25 08:30:00;;;;;;;9.73;2.10;;;11.20;99.30;;;;;;5026442;28;20538;-74
2023/03/25 08:32:53;;;;;;;15.07;4.10;;;11.10;99.50;;;;;;5019966;28;20525;-74
2023/03/25 08:35:39;;;;;;;13.87;2.30;;;11.20;99.00;;;;;;5014597;28;20472;-74
2023/03/25 08:38:29;;;;;;;10.90;3.87;;;11.20;98.90;;;;;;5025889;28;20955;-74
2023/03/25 08:41:15;;;;;;;17.50;2.13;;;11.30;99.40;;;;;;5029255;28;20440;-74
2023/03/25 08:44:00;;;;;;;7.90;1.63;;;11.30;99.20;;;;;;5025996;28;20467;-73
2023/03/25 08:46:46;;;;;;;5.30;1.20;;;11.30;98.80;;;;;;5017216;28;20451;-74
2023/03/25 08:49:33;;;;;;;6.17;1.50;;;11.30;98.30;;;;;;5026242;28;20455;-73
2023/03/25 08:52:18;;;;;;;9.33;2.30;;;11.20;98.80;;;;;;5023535;28;20576;-74
2023/03/25 08:55:06;;;;;;;5.60;1.50;;;11.30;99.90;;;;;;5027883;28;20554;-74
2023/03/25 08:57:52;;;;;;;13.07;1.90;;;11.40;99.90;;;;;;5030899;28;20459;-74
2023/03/25 09:00:38;;;;;;;17.60;1.77;;;11.40;99.90;;;;;;5023075;28;20462;-74
2023/03/25 09:03:25;;;;;;;10.80;2.27;;;11.50;99.90;;;;;;5022145;28;20468;-73
2023/03/25 09:06:12;;;;;;;11.40;1.83;;;11.60;99.90;;;;;;5026824;28;20455;-74
2023/03/25 09:08:59;;;;;;;9.30;1.80;;;11.60;99.90;;;;;;5026751;28;20453;-74
2023/03/25 09:11:45;;;;;;;10.50;2.23;;;11.60;99.90;;;;;;5025686;28;20475;-74
2023/03/25 09:14:30;;;;;;;8.17;1.50;;;11.50;99.90;;;;;;5027487;28;20418;-73
2023/03/25 09:17:16;;;;;;;5.80;1.90;;;11.60;99.90;;;;;;5031773;28;20557;-74
2023/03/25 09:20:02;;;;;;;5.40;1.40;;;11.80;99.90;;;;;;5027897;28;21075;-73
2023/03/25 09:22:49;;;;;;;14.17;1.80;;;11.90;99.90;;;;;;5024430;28;20552;-74
2023/03/25 09:25:35;;;;;;;5.93;1.43;;;11.80;98.10;;;;;;5021112;28;20521;-74
2023/03/25 09:28:20;;;;;;;6.20;1.80;;;11.90;97.80;;;;;;5025668;28;20459;-73
2023/03/25 09:31:06;;;;;;;5.10;1.27;;;11.90;98.40;;;;;;5030466;28;20451;-74
2023/03/25 09:33:52;;;;;;;3.20;1.27;;;11.80;97.20;;;;;;5026862;28;20822;-73
2023/03/25 09:36:38;;;;;;;7.03;2.57;;;11.60;98.30;;;;;;5027260;28;20446;-74
2023/03/25 09:39:25;;;;;;;5.37;1.00;;;11.60;98.90;;;;;;5027399;28;20522;-73
2023/03/25 09:42:33;;;;;;;4.13;1.30;;;11.50;99.90;;;;;;5025733;28;20463;-74
2023/03/25 09:45:30;;;;;;;3.80;1.47;;;11.40;99.90;;;;;;5025995;28;21025;-74
2023/03/25 09:48:25;;;;;;;5.80;1.40;;;11.20;99.90;;;;;;5025807;28;20519;-74
2023/03/25 09:51:15;;;;;;;4.43;1.00;;;10.90;99.90;;;;;;5026189;28;20823;-74
2023/03/25 09:54:04;;;;;;;2.43;1.00;;;11.00;99.90;;;;;;5029347;28;20553;-74
2023/03/25 09:56:53;;;;;;;2.50;0.90;;;10.90;99.90;;;;;;5026968;28;20526;-73
2023/03/25 09:59:45;;;;;;;2.07;1.00;;;10.80;99.90;;;;;;5026869;28;20456;-73
2023/03/25 10:02:38;;;;;;;2.20;0.87;;;10.80;99.90;;;;;;5025875;28;20485;-74
2023/03/25 10:05:38;;;;;;;3.90;1.27;;;10.90;99.90;;;;;;5017279;28;20498;-74
2023/03/25 10:08:31;;;;;;;3.00;1.00;;;10.90;99.90;;;;;;5020460;28;20463;-74
2023/03/25 10:11:25;;;;;;;2.83;1.10;;;11.00;99.90;;;;;;5026278;28;21112;-73
2023/03/25 10:14:19;;;;;;;4.13;1.50;;;11.10;99.90;;;;;;5025700;28;20573;-73
2023/03/25 10:17:15;;;;;;;2.60;1.40;;;11.10;99.90;;;;;;5022512;28;20447;-74
2023/03/25 10:20:11;;;;;;;3.30;1.30;;;11.20;99.90;;;;;;5041857;28;20431;-73
2023/03/25 10:23:07;;;;;;;5.00;2.03;;;11.40;99.90;;;;;;5020739;28;20458;-73
2023/03/25 10:25:59;;;;;;;8.33;1.60;;;11.70;99.90;;;;;;5019246;28;20430;-73
2023/03/25 10:28:53;;;;;;;3.67;1.23;;;11.90;99.90;;;;;;5023715;28;20813;-73
2023/03/25 10:31:48;;;;;;;3.90;1.17;;;12.00;99.90;;;;;;5023190;28;20889;-74
2023/03/25 10:34:38;;;;;;;3.03;1.40;;;12.00;99.90;;;;;;5026106;28;20451;-73
2023/03/25 10:37:28;;;;;;;5.93;1.60;;;12.10;99.90;;;;;;5018329;28;20578;-73
2023/03/25 10:40:19;;;;;;;3.90;1.20;;;12.10;99.90;;;;;;5022245;28;20448;-74
2023/03/25 10:43:16;;;;;;;5.83;1.13;;;12.20;99.90;;;;;;5021222;28;20469;-73
2023/03/25 10:46:11;;;;;;;5.77;1.30;;;12.30;99.40;;;;;;5019900;28;21013;-73
2023/03/25 10:48:58;;;;;;;4.47;1.23;;;12.40;97.20;;;;;;5024615;28;20559;-73
2023/03/25 10:51:45;;;;;;;2.93;1.50;;;12.60;94.70;;;;;;5022691;28;20486;-73
2023/03/25 10:54:33;;;;;;;4.03;1.60;;;12.60;94.00;;;;;;5027218;28;20448;-73
2023/03/25 10:57:21;;;;;;;5.00;1.30;;;12.50;93.10;;;;;;5023564;28;20791;-74
2023/03/25 11:00:17;;;;;;;4.30;0.80;;;12.50;93.40;;;;;;5027322;28;20440;-73
2023/03/25 11:03:04;;;;;;;4.63;1.40;;;12.40;92.00;;;;;;5021003;28;20545;-73
2023/03/25 11:05:52;;;;;;;6.07;1.47;;;12.30;93.20;;;;;;5018496;28;20456;-74
2023/03/25 11:08:55;;;;;;;3.13;1.43;;;12.20;96.10;;;;;;5026475;28;20443;-73
2023/03/25 11:11:42;;;;;;;4.20;1.20;;;11.90;99.90;;;;;;5017080;28;20587;-73
2023/03/25 11:14:29;;;;;;;6.03;1.47;;;11.70;99.90;;;;;;5029495;28;20473;-73
2023/03/25 11:17:20;;;;;;;3.73;1.50;;;11.50;99.90;;;;;;5013582;28;20430;-73
2023/03/25 11:20:16;;;;;;;7.43;1.87;;;11.30;99.90;;;;;;5022549;28;21007;-73
2023/03/25 11:23:16;;;;;;;4.90;1.20;;;11.20;99.90;;;;;;5025973;28;21093;-73
2023/03/25 11:26:05;;;;;;;2.37;1.20;;;11.10;99.90;;;;;;5024704;28;20460;-73
2023/03/25 11:28:53;;;;;;;1.67;0.80;;;11.00;99.90;;;;;;5019710;28;20425;-73
2023/03/25 11:31:42;;;;;;;5.00;1.23;;;11.00;99.90;;;;;;5023396;28;20414;-74
2023/03/25 11:34:27;;;;;;;4.53;1.67;;;11.00;99.90;;;;;;5021145;28;20444;-73
2023/03/25 11:37:19;;;;;;;3.80;2.30;;;11.00;99.90;;;;;;5020175;28;20503;-73
2023/03/25 11:40:15;;;;;;;3.20;0.90;;;11.00;99.90;;;;;;5024273;28;20587;-74
2023/03/25 11:43:03;;;;;;;1.93;0.70;;;11.00;99.90;;;;;;5022970;28;20455;-73
2023/03/25 11:45:49;;;;;;;2.50;0.80;;;10.90;99.90;;;;;;5026197;28;20515;-73
2023/03/25 11:48:39;;;;;;;3.07;1.07;;;10.90;99.90;;;;;;5029578;28;20472;-74
2023/03/25 11:51:28;;;;;;;4.97;1.00;;;11.00;99.90;;;;;;5029993;28;20435;-73
2023/03/25 11:54:16;;;;;;;2.90;1.00;;;11.10;99.90;;;;;;5036326;28;20503;-74
2023/03/25 11:57:06;;;;;;;1.93;0.90;;;11.00;99.90;;;;;;5028156;28;21003;-73
2023/03/25 12:00:05;;;;;;;2.90;0.87;;;11.10;99.90;;;;;;5018921;28;20432;-73
2023/03/25 12:03:00;;;;;;;4.80;1.00;;;11.10;99.90;;;;;;5027923;28;20452;-75
2023/03/25 12:05:57;;;;;;;3.93;1.33;;;11.20;99.90;;;;;;5041781;28;20503;-74
2023/03/25 12:08:48;;;;;;;5.90;1.10;;;11.30;99.90;;;;;;5029634;28;20931;-74
2023/03/25 12:11:40;;;;;;;3.37;1.33;;;11.60;99.90;;;;;;5033517;28;20770;-73
2023/03/25 12:14:36;;;;;;;2.60;0.90;;;12.00;99.90;;;;;;5026612;22;21014;-88
2023/03/25 12:17:36;;;;;;;3.60;1.17;;;12.40;99.90;;;;;;5000024;28;20467;-89
2023/03/25 12:20:29;;;;;;;4.57;1.00;;;12.70;99.90;;;;;;5001411;28;20445;-91
2023/03/25 12:23:24;;;;;;;4.87;1.00;;;13.10;98.80;;;;;;5007238;28;20577;-91
2023/03/25 12:26:13;;;;;;;2.20;0.80;;;13.40;95.30;;;;;;4999794;28;20467;-89
2023/03/25 12:32:39;;;;;;;4.80;1.80;;;13.40;87.50;;;;;;5005041;28;20587;-90
2023/03/25 12:35:33;;;;;;;3.93;0.93;;;13.30;83.60;;;;;;5001635;28;20828;-90
2023/03/25 12:38:31;;;;;;;4.90;1.00;;;13.10;77.70;;;;;;5006868;28;20580;-88
2023/03/25 12:41:22;;;;;;;6.13;1.13;;;12.90;78.90;;;;;;5020075;28;20409;-90
2023/03/25 12:44:11;;;;;;;3.63;1.20;;;12.70;79.90;;;;;;5012677;28;20435;-89
2023/03/25 12:47:16;;;;;;;4.40;0.90;;;12.70;79.10;;;;;;5007757;28;20450;-90
2023/03/25 12:50:23;;;;;;;3.77;1.20;;;12.70;79.20;;;;;;5009249;28;20823;-90
2023/03/25 12:53:35;;;;;;;8.50;1.47;;;12.80;79.60;;;;;;5012262;28;20775;-89
2023/03/25 12:56:40;;;;;;;6.30;1.17;;;12.80;75.10;;;;;;5012131;28;20505;-89
2023/03/25 12:59:47;;;;;;;5.70;1.70;;;12.90;78.10;;;;;;5014219;28;20937;-89
2023/03/25 13:03:01;;;;;;;3.77;1.10;;;13.00;80.20;;;;;;5009484;28;20817;-90
2023/03/25 13:05:54;;;;;;;5.80;1.33;;;13.20;73.80;;;;;;5006042;28;20989;-89
2023/03/25 13:08:46;;;;;;;5.13;1.00;;;13.20;75.00;;;;;;5004701;28;20918;-89
2023/03/25 13:11:37;;;;;;;3.47;1.20;;;13.10;71.40;;;;;;5010854;28;20965;-90
2023/03/25 13:14:27;;;;;;;3.20;0.90;;;13.00;69.90;;;;;;5016123;28;20414;-89
2023/03/25 13:17:30;;;;;;;3.27;1.20;;;12.70;72.60;;;;;;5009068;28;20464;-89
2023/03/25 13:20:18;;;;;;;6.67;1.90;;;12.70;78.00;;;;;;5016168;28;20402;-89
2023/03/25 13:23:11;;;;;;;6.33;1.93;;;12.50;81.40;;;;;;5016415;28;20940;-90
2023/03/25 13:26:01;;;;;;;4.93;1.70;;;12.40;84.20;;;;;;5010411;28;20451;-90
2023/03/25 13:28:50;;;;;;;6.13;1.70;;;12.50;84.40;;;;;;5017894;28;20410;-90
2023/03/25 13:31:41;;;;;;;6.60;2.80;;;12.50;81.80;;;;;;5022868;28;20952;-90
2023/03/25 13:34:32;;;;;;;1.97;0.97;;;12.50;79.90;;;;;;5016486;28;20530;-90
2023/03/25 13:37:23;;;;;;;5.03;1.50;;;12.60;80.60;;;;;;5015985;28;20544;-90
2023/03/25 13:40:23;;;;;;;4.30;1.10;;;12.60;73.90;;;;;;5023306;28;20807;-89
2023/03/25 13:43:21;;;;;;;6.83;1.30;;;12.80;70.70;;;;;;5023982;28;20407;-89
2023/03/25 13:46:09;;;;;;;3.90;1.23;;;13.20;73.80;;;;;;5011170;28;20831;-90
2023/03/25 13:49:01;;;;;;;2.50;1.07;;;13.50;69.20;;;;;;5015916;28;20429;-89
2023/03/25 13:51:46;;;;;;;3.20;1.30;;;13.40;65.50;;;;;;5014600;28;20424;-90
2023/03/25 13:54:38;;;;;;;3.80;1.30;;;13.30;62.30;;;;;;5003763;28;20536;-90
2023/03/25 13:57:54;;;;;;;5.00;1.43;;;13.10;62.10;;;;;;5012420;28;20827;-90
2023/03/25 14:00:56;;;;;;;3.40;1.00;;;13.00;64.70;;;;;;4998466;28;20495;-90
2023/03/25 14:04:18;;;;;;;4.50;1.03;;;13.00;63.10;;;;;;5010099;28;20783;-89
2023/03/25 14:07:23;;;;;;;5.20;1.53;;;12.90;63.30;;;;;;5017200;28;20456;-89
2023/03/25 14:10:37;;;;;;;2.73;1.00;;;12.90;62.50;;;;;;5025128;28;20427;-89
2023/03/25 14:13:29;;;;;;;6.00;1.50;;;13.00;61.90;;;;;;5016405;28;20490;-90
2023/03/25 14:16:17;;;;;;;4.30;1.47;;;13.40;62.70;;;;;;5012195;28;20481;-89
2023/03/25 14:19:11;;;;;;;4.40;1.20;;;14.10;53.70;;;;;;5021670;28;20449;-89
2023/03/25 14:21:57;;;;;;;6.73;1.17;;;14.00;45.40;;;;;;5023892;28;20473;-89
2023/03/25 14:24:44;;;;;;;4.17;1.27;;;14.00;46.60;;;;;;5008689;28;20430;-90
2023/03/25 14:27:33;;;;;;;4.67;1.37;;;14.10;45.50;;;;;;5008476;28;20821;-89
2023/03/25 14:30:23;;;;;;;3.60;1.10;;;14.30;43.00;;;;;;5016188;28;20449;-89
2023/03/25 14:33:11;;;;;;;2.90;1.10;;;14.60;43.70;;;;;;5016469;28;20485;-90
2023/03/25 14:35:57;;;;;;;7.07;1.70;;;14.70;41.70;;;;;;5009945;28;20488;-89
2023/03/25 14:38:53;;;;;;;3.87;1.00;;;14.80;37.30;;;;;;5005399;28;20456;-90
2023/03/25 14:42:00;;;;;;;3.40;1.17;;;15.00;36.80;;;;;;5022304;28;20886;-90
2023/03/25 14:44:53;;;;;;;5.63;1.40;;;15.00;39.70;;;;;;5015443;28;20499;-89
2023/03/25 14:47:52;;;;;;;3.50;1.07;;;14.90;36.30;;;;;;5010640;28;20405;-90
2023/03/25 14:50:39;;;;;;;5.77;1.30;;;14.60;37.00;;;;;;5013554;28;20431;-90
2023/03/25 14:53:27;;;;;;;6.30;1.10;;;14.40;35.60;;;;;;5023714;28;20828;-90